createdAt,value
2023-01-12T00:00:27.334Z,1.61
2023-01-12T00:01:32.202Z,1.63
2023-01-12T00:02:37.597Z,1.53
2023-01-12T00:03:40.188Z,1.56
2023-01-12T00:04:42.882Z,1.59
2023-01-12T00:05:45.244Z,1.62
2023-01-12T00:06:48.908Z,1.69
2023-01-12T00:07:51.406Z,1.71
2023-01-12T00:08:54.122Z,1.69
2023-01-12T00:09:56.721Z,1.67
2023-01-12T00:10:59.283Z,1.65
2023-01-12T00:12:07.530Z,1.70
2023-01-12T00:13:10.931Z,1.58
2023-01-12T00:14:13.591Z,1.60
2023-01-12T00:15:16.214Z,1.66
2023-01-12T00:16:39.803Z,1.63
2023-01-12T00:17:42.561Z,1.63
2023-01-12T00:18:47.096Z,1.66
2023-01-12T00:19:51.609Z,1.65
2023-01-12T00:20:54.265Z,1.63
2023-01-12T00:21:59.490Z,1.60
2023-01-12T00:23:02.025Z,1.59
2023-01-12T00:24:07.318Z,1.48
2023-01-12T00:25:09.984Z,1.50
2023-01-12T00:26:12.983Z,1.58
2023-01-12T00:27:20.316Z,1.61
2023-01-12T00:28:25.588Z,1.60
2023-01-12T00:29:29.224Z,1.65
2023-01-12T00:30:31.977Z,1.63
2023-01-12T00:31:34.457Z,1.63
2023-01-12T00:32:36.947Z,1.58
2023-01-12T00:33:40.541Z,1.54
2023-01-12T00:34:43.708Z,1.58
2023-01-12T00:35:46.397Z,1.61
2023-01-12T00:36:49.094Z,1.64
2023-01-12T00:37:51.696Z,1.57
2023-01-12T00:38:54.458Z,1.65
2023-01-12T00:40:02.644Z,1.56
2023-01-12T00:41:07.095Z,1.57
2023-01-12T00:42:28.011Z,1.65
2023-01-12T00:43:49.511Z,1.62
2023-01-12T00:45:10.763Z,1.62
2023-01-12T00:46:13.359Z,1.60
2023-01-12T00:47:16.917Z,1.65
2023-01-12T00:48:19.666Z,1.62
2023-01-12T00:49:22.588Z,1.63
2023-01-12T00:50:25.167Z,1.64
2023-01-12T00:51:27.704Z,1.66
2023-01-12T00:52:31.616Z,1.57
2023-01-12T00:53:34.282Z,1.66
2023-01-12T00:54:36.904Z,1.60
2023-01-12T00:55:39.867Z,1.67
2023-01-12T00:56:43.022Z,1.54
2023-01-12T00:57:45.555Z,1.53
2023-01-12T00:58:48.287Z,1.59
2023-01-12T00:59:55.479Z,1.55
2023-01-12T01:01:08.805Z,1.71
2023-01-12T01:02:14.903Z,1.66
2023-01-12T01:03:17.705Z,1.72
2023-01-12T01:04:20.511Z,1.66
2023-01-12T01:05:23.207Z,1.65
2023-01-12T01:06:26.411Z,1.63
2023-01-12T01:07:29.146Z,1.64
2023-01-12T01:08:32.809Z,1.64
2023-01-12T01:09:35.316Z,1.65
2023-01-12T01:10:37.772Z,1.59
2023-01-12T01:11:40.895Z,1.62
2023-01-12T01:12:43.438Z,1.72
2023-01-12T01:13:46.026Z,1.92
2023-01-12T01:14:48.932Z,1.90
2023-01-12T01:15:51.413Z,1.92
2023-01-12T01:16:53.863Z,1.87
2023-01-12T01:17:56.269Z,1.85
2023-01-12T01:18:59.696Z,1.89
2023-01-12T01:20:02.324Z,1.94
2023-01-12T01:21:05.724Z,1.90
2023-01-12T01:22:08.255Z,1.80
2023-01-12T01:23:10.785Z,1.89
2023-01-12T01:24:17.109Z,1.90
2023-01-12T01:25:19.717Z,1.79
2023-01-12T01:26:23.750Z,1.84
2023-01-12T01:27:26.273Z,1.80
2023-01-12T01:28:28.928Z,1.82
2023-01-12T01:29:31.596Z,1.85
2023-01-12T01:30:34.221Z,1.85
2023-01-12T01:31:37.345Z,1.83
2023-01-12T01:32:40.075Z,1.84
2023-01-12T01:33:43.433Z,1.84
2023-01-12T01:34:47.411Z,1.91
2023-01-12T01:35:49.897Z,1.91
2023-01-12T01:36:52.446Z,1.82
2023-01-12T01:37:55.249Z,1.87
2023-01-12T01:38:58.066Z,1.82
2023-01-12T01:40:00.543Z,1.84
2023-01-12T01:41:04.332Z,1.88
2023-01-12T01:42:26.741Z,1.89
2023-01-12T01:43:47.844Z,1.92
2023-01-12T01:44:53.867Z,1.90
2023-01-12T01:46:12.213Z,1.97
2023-01-12T01:47:35.246Z,2.03
2023-01-12T01:48:40.040Z,2.02
2023-01-12T01:49:48.327Z,1.95
2023-01-12T01:50:57.849Z,1.98
2023-01-12T01:52:18.729Z,1.94
2023-01-12T01:53:24.809Z,1.84
2023-01-12T01:54:33.884Z,1.90
2023-01-12T01:55:48.677Z,1.95
2023-01-12T01:56:56.247Z,1.95
2023-01-12T01:58:03.003Z,1.85
2023-01-12T01:59:15.187Z,1.76
2023-01-12T02:00:20.347Z,1.69
2023-01-12T02:01:23.079Z,1.78
2023-01-12T02:02:27.339Z,1.74
2023-01-12T02:03:32.077Z,1.82
2023-01-12T02:04:35.794Z,1.82
2023-01-12T02:05:41.900Z,1.82
2023-01-12T02:06:44.440Z,1.81
2023-01-12T02:07:48.824Z,1.76
2023-01-12T02:08:56.615Z,1.81
2023-01-12T02:09:59.140Z,1.77
2023-01-12T02:11:25.903Z,1.77
2023-01-12T02:12:47.206Z,1.79
2023-01-12T02:14:08.469Z,1.78
2023-01-12T02:15:30.147Z,1.75
2023-01-12T02:16:34.617Z,1.75
2023-01-12T02:18:11.520Z,1.65
2023-01-12T02:19:35.672Z,1.52
2023-01-12T02:20:38.071Z,1.48
2023-01-12T02:22:14.663Z,1.44
2023-01-12T02:23:23.024Z,1.47
2023-01-12T02:24:37.785Z,1.36
2023-01-12T02:25:51.976Z,1.38
2023-01-12T02:27:26.878Z,1.41
2023-01-12T02:28:55.289Z,1.43
2023-01-12T02:30:25.517Z,1.38
2023-01-12T02:31:39.660Z,1.32
2023-01-12T02:32:48.293Z,1.24
2023-01-12T02:34:09.583Z,1.20
2023-01-12T02:35:28.715Z,1.25
2023-01-12T02:37:03.069Z,1.23
2023-01-12T02:38:35.087Z,1.20
2023-01-12T02:39:50.716Z,1.22
2023-01-12T02:41:18.622Z,1.22
2023-01-12T02:42:43.254Z,1.09
2023-01-12T02:43:46.459Z,1.09
2023-01-12T02:44:53.307Z,1.10
2023-01-12T02:46:23.557Z,1.07
2023-01-12T02:48:05.133Z,1.10
2023-01-12T02:49:13.515Z,1.10
2023-01-12T02:50:24.482Z,1.11
2023-01-12T02:51:32.337Z,1.16
2023-01-12T02:52:35.324Z,1.19
2023-01-12T02:53:44.965Z,1.14
2023-01-12T02:54:49.452Z,1.15
2023-01-12T02:55:53.064Z,1.14
2023-01-12T02:57:02.977Z,1.13
2023-01-12T02:58:08.788Z,1.10
2023-01-12T02:59:35.213Z,1.01
2023-01-12T03:00:39.464Z,1.02
2023-01-12T03:01:45.209Z,1.04
2023-01-12T03:02:48.613Z,0.93
2023-01-12T03:03:53.316Z,0.97
2023-01-12T03:04:55.970Z,0.92
2023-01-12T03:05:59.902Z,0.87
2023-01-12T03:07:02.664Z,1.00
2023-01-12T03:08:06.096Z,0.98
2023-01-12T03:09:10.392Z,0.99
2023-01-12T03:10:21.102Z,0.96
2023-01-12T03:11:23.945Z,0.87
2023-01-12T03:12:32.033Z,0.88
2023-01-12T03:13:37.504Z,0.88
2023-01-12T03:14:44.658Z,0.83
2023-01-12T03:15:54.003Z,0.82
2023-01-12T03:16:57.398Z,0.82
2023-01-12T03:18:37.577Z,0.83
2023-01-12T03:19:43.837Z,0.87
2023-01-12T03:20:53.369Z,0.87
2023-01-12T03:21:59.810Z,0.82
2023-01-12T03:23:11.763Z,0.79
2023-01-12T03:24:36.321Z,0.84
2023-01-12T03:25:42.176Z,0.77
2023-01-12T03:26:49.325Z,0.64
2023-01-12T03:27:55.871Z,0.72
2023-01-12T03:29:10.558Z,0.76
2023-01-12T03:30:17.019Z,0.79
2023-01-12T03:31:20.367Z,0.86
2023-01-12T03:32:23.551Z,0.88
2023-01-12T03:33:26.815Z,0.93
2023-01-12T03:34:29.358Z,0.97
2023-01-12T03:35:37.951Z,0.97
2023-01-12T03:36:54.605Z,0.98
2023-01-12T03:38:24.879Z,1.12
2023-01-12T03:39:58.506Z,1.18
2023-01-12T03:41:07.081Z,1.19
2023-01-12T03:42:14.344Z,1.23
2023-01-12T03:43:22.546Z,1.36
2023-01-12T03:44:46.664Z,1.40
2023-01-12T03:45:55.311Z,1.38
2023-01-12T03:47:07.611Z,1.43
2023-01-12T03:48:36.926Z,1.36
2023-01-12T03:49:51.222Z,1.44
2023-01-12T03:51:00.143Z,1.42
2023-01-12T03:52:08.324Z,1.49
2023-01-12T03:53:13.738Z,1.55
2023-01-12T03:54:18.529Z,1.45
2023-01-12T03:55:23.503Z,1.50
2023-01-12T03:56:29.895Z,1.56
2023-01-12T03:57:32.890Z,1.61
2023-01-12T03:58:36.314Z,1.65
2023-01-12T03:59:39.413Z,1.72
2023-01-12T04:00:42.129Z,1.67
2023-01-12T04:01:44.924Z,1.71
2023-01-12T04:02:47.621Z,1.67
2023-01-12T04:03:50.211Z,1.67
2023-01-12T04:04:52.883Z,1.72
2023-01-12T04:05:55.440Z,1.70
2023-01-12T04:06:59.871Z,1.67
2023-01-12T04:08:05.301Z,1.70
2023-01-12T04:09:08.250Z,1.67
2023-01-12T04:10:11.243Z,1.81
2023-01-12T04:11:33.578Z,1.81
2023-01-12T04:12:36.223Z,1.79
2023-01-12T04:13:38.792Z,1.82
2023-01-12T04:14:47.812Z,1.83
2023-01-12T04:15:50.658Z,1.83
2023-01-12T04:16:53.458Z,1.83
2023-01-12T04:17:56.411Z,1.84
2023-01-12T04:18:59.082Z,1.83
2023-01-12T04:20:01.758Z,1.88
2023-01-12T04:21:04.769Z,1.92
2023-01-12T04:22:26.950Z,1.92
2023-01-12T04:23:29.505Z,1.91
2023-01-12T04:24:32.005Z,1.93
2023-01-12T04:25:34.829Z,1.91
2023-01-12T04:26:37.765Z,2.00
2023-01-12T04:27:50.701Z,2.00
2023-01-12T04:28:54.289Z,1.99
2023-01-12T04:29:57.030Z,2.02
2023-01-12T04:30:59.567Z,2.04
2023-01-12T04:32:02.608Z,2.12
2023-01-12T04:33:09.523Z,2.11
2023-01-12T04:34:12.205Z,2.07
2023-01-12T04:35:16.575Z,2.02
2023-01-12T04:36:20.071Z,2.04
2023-01-12T04:37:22.821Z,2.06
2023-01-12T04:38:26.107Z,2.06
2023-01-12T04:39:29.369Z,2.06
2023-01-12T04:40:32.043Z,2.08
2023-01-12T04:41:34.956Z,2.08
2023-01-12T04:42:56.748Z,2.13
2023-01-12T04:43:59.480Z,2.14
2023-01-12T04:45:01.974Z,2.14
2023-01-12T04:46:10.800Z,2.14
2023-01-12T04:47:13.291Z,2.16
2023-01-12T04:48:16.733Z,2.19
2023-01-12T04:49:19.391Z,2.17
2023-01-12T04:50:22.237Z,2.20
2023-01-12T04:51:25.574Z,2.15
2023-01-12T04:52:28.203Z,2.17
2023-01-12T04:53:30.858Z,2.16
2023-01-12T04:54:33.443Z,2.17
2023-01-12T04:55:37.465Z,2.20
2023-01-12T04:56:40.235Z,2.15
2023-01-12T04:57:43.151Z,2.18
2023-01-12T04:58:45.870Z,2.19
2023-01-12T04:59:48.527Z,2.22
2023-01-12T05:00:51.361Z,2.21
2023-01-12T05:01:54.015Z,2.14
2023-01-12T05:03:03.814Z,2.15
2023-01-12T05:04:09.412Z,2.21
2023-01-12T05:05:12.310Z,2.26
2023-01-12T05:06:14.981Z,2.16
2023-01-12T05:07:18.381Z,2.13
2023-01-12T05:08:39.520Z,2.19
2023-01-12T05:10:00.590Z,2.20
2023-01-12T05:11:03.400Z,2.18
2023-01-12T05:12:06.162Z,2.23
2023-01-12T05:13:08.858Z,2.24
2023-01-12T05:14:11.349Z,2.25
2023-01-12T05:15:14.042Z,2.26
2023-01-12T05:16:18.867Z,2.23
2023-01-12T05:17:22.338Z,2.23
2023-01-12T05:18:27.181Z,2.22
2023-01-12T05:19:30.296Z,2.22
2023-01-12T05:20:32.999Z,2.24
2023-01-12T05:21:35.584Z,2.20
2023-01-12T05:22:38.209Z,2.16
2023-01-12T05:23:40.893Z,2.16
2023-01-12T05:24:43.697Z,2.23
2023-01-12T05:25:46.330Z,2.23
2023-01-12T05:26:48.922Z,2.26
2023-01-12T05:27:55.620Z,2.26
2023-01-12T05:28:58.584Z,2.28
2023-01-12T05:30:01.271Z,2.28
2023-01-12T05:31:07.047Z,2.28
2023-01-12T05:32:10.523Z,2.27
2023-01-12T05:33:16.707Z,2.16
2023-01-12T05:34:20.067Z,2.22
2023-01-12T05:35:23.239Z,2.24
2023-01-12T05:36:26.678Z,2.24
2023-01-12T05:37:29.313Z,2.24
2023-01-12T05:38:31.921Z,2.27
2023-01-12T05:39:34.770Z,2.26
2023-01-12T05:40:37.444Z,2.24
2023-01-12T05:42:00.307Z,2.26
2023-01-12T05:43:21.275Z,2.25
2023-01-12T05:44:23.919Z,2.22
2023-01-12T05:45:26.576Z,2.29
2023-01-12T05:46:40.345Z,2.33
2023-01-12T05:47:42.951Z,2.32
2023-01-12T05:48:45.932Z,2.26
2023-01-12T05:49:48.849Z,2.27
2023-01-12T05:50:51.533Z,2.27
2023-01-12T05:51:54.054Z,2.23
2023-01-12T05:52:57.164Z,2.24
2023-01-12T05:53:59.670Z,2.20
2023-01-12T05:55:02.286Z,2.27
2023-01-12T05:56:16.281Z,2.30
2023-01-12T05:57:18.757Z,2.30
2023-01-12T05:58:21.367Z,2.33
2023-01-12T05:59:24.089Z,2.34
2023-01-12T06:00:26.753Z,2.32
2023-01-12T06:01:29.835Z,2.37
2023-01-12T06:02:32.583Z,2.37
2023-01-12T06:03:36.177Z,2.39
2023-01-12T06:04:39.395Z,2.40
2023-01-12T06:05:43.184Z,2.40
2023-01-12T06:06:46.751Z,2.39
2023-01-12T06:07:49.555Z,2.43
2023-01-12T06:08:52.843Z,2.46
2023-01-12T06:09:55.757Z,2.44
2023-01-12T06:11:04.549Z,2.47
2023-01-12T06:12:28.185Z,2.49
2023-01-12T06:13:54.033Z,2.50
2023-01-12T06:14:56.807Z,2.52
2023-01-12T06:16:09.445Z,2.53
2023-01-12T06:17:12.566Z,2.55
2023-01-12T06:18:17.520Z,2.55
2023-01-12T06:19:20.114Z,2.55
2023-01-12T06:20:22.836Z,2.57
2023-01-12T06:21:26.063Z,2.56
2023-01-12T06:22:28.609Z,2.62
2023-01-12T06:23:35.651Z,2.59
2023-01-12T06:24:38.423Z,2.60
2023-01-12T06:25:40.994Z,2.56
2023-01-12T06:26:45.407Z,2.58
2023-01-12T06:27:47.844Z,2.51
2023-01-12T06:28:50.818Z,2.50
2023-01-12T06:29:53.425Z,2.50
2023-01-12T06:31:01.505Z,2.42
2023-01-12T06:32:04.368Z,2.46
2023-01-12T06:33:06.862Z,2.49
2023-01-12T06:34:09.863Z,2.45
2023-01-12T06:35:19.129Z,2.44
2023-01-12T06:36:24.637Z,2.46
2023-01-12T06:37:27.217Z,2.47
2023-01-12T06:38:32.125Z,2.51
2023-01-12T06:39:35.113Z,2.49
2023-01-12T06:40:39.595Z,2.48
2023-01-12T06:42:00.717Z,2.53
2023-01-12T06:43:03.332Z,2.53
2023-01-12T06:44:07.918Z,2.57
2023-01-12T06:45:11.262Z,2.58
2023-01-12T06:46:39.039Z,2.64
2023-01-12T06:47:46.160Z,2.63
2023-01-12T06:48:48.853Z,2.67
2023-01-12T06:49:52.165Z,2.68
2023-01-12T06:51:01.665Z,2.70
2023-01-12T06:52:04.690Z,2.72
2023-01-12T06:53:07.408Z,2.71
2023-01-12T06:54:19.077Z,2.73
2023-01-12T06:55:22.200Z,2.72
2023-01-12T06:56:24.789Z,2.71
2023-01-12T06:57:28.232Z,2.69
2023-01-12T06:58:38.660Z,2.68
2023-01-12T06:59:42.359Z,2.66
2023-01-12T07:00:45.173Z,2.68
2023-01-12T07:01:51.116Z,2.63
2023-01-12T07:02:54.867Z,2.60
2023-01-12T07:03:59.859Z,2.60
2023-01-12T07:05:02.639Z,2.58
2023-01-12T07:06:05.343Z,2.61
2023-01-12T07:07:09.816Z,2.68
2023-01-12T07:08:19.420Z,2.68
2023-01-12T07:09:27.752Z,2.62
2023-01-12T07:10:33.407Z,2.59
2023-01-12T07:11:35.938Z,2.58
2023-01-12T07:12:38.816Z,2.61
2023-01-12T07:13:41.711Z,2.55
2023-01-12T07:14:44.460Z,2.50
2023-01-12T07:15:54.600Z,2.47
2023-01-12T07:16:57.263Z,2.47
2023-01-12T07:17:59.888Z,2.42
2023-01-12T07:19:04.806Z,2.49
2023-01-12T07:20:07.614Z,2.50
2023-01-12T07:21:22.637Z,2.47
2023-01-12T07:22:26.826Z,2.50
2023-01-12T07:23:35.729Z,2.51
2023-01-12T07:24:38.377Z,2.58
2023-01-12T07:25:55.345Z,2.55
2023-01-12T07:27:06.722Z,2.39
2023-01-12T07:28:16.495Z,2.38
2023-01-12T07:29:22.040Z,2.42
2023-01-12T07:30:27.398Z,2.38
2023-01-12T07:31:44.734Z,2.33
2023-01-12T07:32:48.261Z,2.39
2023-01-12T07:33:54.143Z,2.41
2023-01-12T07:35:01.545Z,2.42
2023-01-12T07:36:09.782Z,2.38
2023-01-12T07:37:13.213Z,2.38
2023-01-12T07:38:18.159Z,2.42
2023-01-12T07:39:20.834Z,2.39
2023-01-12T07:40:23.643Z,2.42
2023-01-12T07:41:44.667Z,2.50
2023-01-12T07:42:56.024Z,2.48
2023-01-12T07:44:01.342Z,2.47
2023-01-12T07:45:05.272Z,2.47
2023-01-12T07:46:15.469Z,2.43
2023-01-12T07:47:18.053Z,2.41
2023-01-12T07:48:27.230Z,2.46
2023-01-12T07:49:32.568Z,2.46
2023-01-12T07:50:37.175Z,2.42
2023-01-12T07:51:40.162Z,2.50
2023-01-12T07:52:46.402Z,2.55
2023-01-12T07:53:51.083Z,2.59
2023-01-12T07:54:55.071Z,2.64
2023-01-12T07:56:00.216Z,2.72
2023-01-12T07:57:03.025Z,2.79
2023-01-12T07:58:09.097Z,2.82
2023-01-12T07:59:12.139Z,2.81
2023-01-12T08:00:15.662Z,2.84
2023-01-12T08:01:22.303Z,2.90
2023-01-12T08:02:26.007Z,2.97
2023-01-12T08:03:28.569Z,2.90
2023-01-12T08:04:31.220Z,3.01
2023-01-12T08:05:35.059Z,3.07
2023-01-12T08:06:38.249Z,3.19
2023-01-12T08:07:40.753Z,3.23
2023-01-12T08:08:43.587Z,3.29
2023-01-12T08:09:50.130Z,3.29
2023-01-12T08:10:55.035Z,3.31
2023-01-12T08:11:57.655Z,3.45
2023-01-12T08:13:00.203Z,3.63
2023-01-12T08:14:05.724Z,3.56
2023-01-12T08:15:12.456Z,3.66
2023-01-12T08:16:21.036Z,3.67
2023-01-12T08:17:24.429Z,3.77
2023-01-12T08:18:35.895Z,3.74
2023-01-12T08:19:44.959Z,3.85
2023-01-12T08:20:49.101Z,3.89
2023-01-12T08:22:00.002Z,3.92
2023-01-12T08:23:28.162Z,3.95
2023-01-12T08:24:37.046Z,3.87
2023-01-12T08:25:45.072Z,3.86
2023-01-12T08:26:51.462Z,3.84
2023-01-12T08:28:00.439Z,3.96
2023-01-12T08:29:30.269Z,3.73
2023-01-12T08:30:33.369Z,3.77
2023-01-12T08:31:39.438Z,3.77
2023-01-12T08:32:51.356Z,3.68
2023-01-12T08:34:06.398Z,3.72
2023-01-12T08:35:10.145Z,3.82
2023-01-12T08:36:19.229Z,3.77
2023-01-12T08:37:25.774Z,3.73
2023-01-12T08:38:30.825Z,3.57
2023-01-12T08:39:35.486Z,3.59
2023-01-12T08:40:59.807Z,3.52
2023-01-12T08:42:07.378Z,3.56
2023-01-12T08:43:12.024Z,3.58
2023-01-12T08:44:15.592Z,3.68
2023-01-12T08:45:21.860Z,3.74
2023-01-12T08:46:24.538Z,3.68
2023-01-12T08:47:30.553Z,3.67
2023-01-12T08:48:33.766Z,3.84
2023-01-12T08:49:36.630Z,3.79
2023-01-12T08:50:43.712Z,3.77
2023-01-12T08:51:46.647Z,3.77
2023-01-12T08:52:59.719Z,3.78
2023-01-12T08:54:03.135Z,3.80
2023-01-12T08:55:11.346Z,3.81
2023-01-12T08:56:13.940Z,3.87
2023-01-12T08:57:17.441Z,3.99
2023-01-12T08:58:23.020Z,4.16
2023-01-12T08:59:26.715Z,4.12
2023-01-12T09:00:29.429Z,4.06
2023-01-12T09:01:32.633Z,4.11
2023-01-12T09:02:35.937Z,4.04
2023-01-12T09:03:41.830Z,3.94
2023-01-12T09:04:49.821Z,3.70
2023-01-12T09:05:54.432Z,3.73
2023-01-12T09:06:59.948Z,3.55
2023-01-12T09:08:08.823Z,3.61
2023-01-12T09:09:17.510Z,3.78
2023-01-12T09:10:25.212Z,3.65
2023-01-12T09:11:32.880Z,3.62
2023-01-12T09:12:35.532Z,3.68
2023-01-12T09:13:47.401Z,3.81
2023-01-12T09:14:53.034Z,3.83
2023-01-12T09:16:12.339Z,3.93
2023-01-12T09:17:18.206Z,4.06
2023-01-12T09:18:24.592Z,3.97
2023-01-12T09:19:33.165Z,3.96
2023-01-12T09:20:36.998Z,3.92
2023-01-12T09:21:47.143Z,4.00
2023-01-12T09:22:50.572Z,3.88
2023-01-12T09:23:59.658Z,3.96
2023-01-12T09:25:10.901Z,3.71
2023-01-12T09:26:17.490Z,3.77
2023-01-12T09:27:25.815Z,3.91
2023-01-12T09:28:32.161Z,3.98
2023-01-12T09:29:46.863Z,3.82
2023-01-12T09:31:00.582Z,3.90
2023-01-12T09:32:06.030Z,3.79
2023-01-12T09:33:08.812Z,3.86
2023-01-12T09:34:11.912Z,3.84
2023-01-12T09:35:20.134Z,3.86
2023-01-12T09:36:25.475Z,3.91
2023-01-12T09:37:28.756Z,3.99
2023-01-12T09:38:31.908Z,3.96
2023-01-12T09:39:34.574Z,3.92
2023-01-12T09:40:37.688Z,3.92
2023-01-12T09:42:06.290Z,4.00
2023-01-12T09:43:34.006Z,4.08
2023-01-12T09:44:59.573Z,4.11
2023-01-12T09:46:20.797Z,4.25
2023-01-12T09:47:48.825Z,4.27
2023-01-12T09:48:51.795Z,4.22
2023-01-12T09:50:22.755Z,4.13
2023-01-12T09:51:34.543Z,4.20
2023-01-12T09:53:05.595Z,4.14
2023-01-12T09:54:36.328Z,4.09
2023-01-12T09:56:03.219Z,3.95
2023-01-12T09:57:40.663Z,3.97
2023-01-12T09:59:02.780Z,4.06
2023-01-12T10:00:16.453Z,4.13
2023-01-12T10:01:30.175Z,4.09
2023-01-12T10:02:37.861Z,3.94
2023-01-12T10:03:49.520Z,3.93
2023-01-12T10:05:00.862Z,3.73
2023-01-12T10:06:09.061Z,3.91
2023-01-12T10:07:17.051Z,3.92
2023-01-12T10:08:31.653Z,3.89
2023-01-12T10:09:38.017Z,4.02
2023-01-12T10:10:47.208Z,4.09
2023-01-12T10:12:14.151Z,4.14
2023-01-12T10:13:17.564Z,3.99
2023-01-12T10:14:37.590Z,4.10
2023-01-12T10:16:04.046Z,4.15
2023-01-12T10:17:10.416Z,4.20
2023-01-12T10:18:40.536Z,4.32
2023-01-12T10:20:07.448Z,4.45
2023-01-12T10:21:11.433Z,4.72
2023-01-12T10:22:48.004Z,4.79
2023-01-12T10:23:55.990Z,4.72
2023-01-12T10:25:01.482Z,4.71
2023-01-12T10:26:23.540Z,4.73
2023-01-12T10:27:26.766Z,4.78
2023-01-12T10:28:37.455Z,4.66
2023-01-12T10:29:49.933Z,4.53
2023-01-12T10:30:56.286Z,4.62
2023-01-12T10:31:59.233Z,4.78
2023-01-12T10:33:31.258Z,4.79
2023-01-12T10:34:51.456Z,4.77
2023-01-12T10:35:59.915Z,4.52
2023-01-12T10:37:09.332Z,4.76
2023-01-12T10:38:39.515Z,4.82
2023-01-12T10:39:44.867Z,5.03
2023-01-12T10:41:14.919Z,5.39
2023-01-12T10:42:42.393Z,5.91
2023-01-12T10:44:12.582Z,6.15
2023-01-12T10:45:21.190Z,5.80
2023-01-12T10:46:27.719Z,5.67
2023-01-12T10:47:33.861Z,5.57
2023-01-12T10:48:38.997Z,5.50
2023-01-12T10:49:41.483Z,5.19
2023-01-12T10:50:59.765Z,4.73
2023-01-12T10:52:38.833Z,4.64
2023-01-12T10:53:45.791Z,4.79
2023-01-12T10:54:59.064Z,4.92
2023-01-12T10:56:31.280Z,4.72
2023-01-12T10:57:44.123Z,5.01
2023-01-12T10:59:07.997Z,4.79
2023-01-12T11:00:21.744Z,4.93
2023-01-12T11:01:24.444Z,5.01
2023-01-12T11:02:29.572Z,5.22
2023-01-12T11:03:37.671Z,5.41
2023-01-12T11:04:45.335Z,5.59
2023-01-12T11:05:48.008Z,5.51
2023-01-12T11:07:05.461Z,5.47
2023-01-12T11:08:27.222Z,5.57
2023-01-12T11:09:31.845Z,5.86
2023-01-12T11:10:36.814Z,6.16
2023-01-12T11:11:39.237Z,6.05
2023-01-12T11:12:41.724Z,5.96
2023-01-12T11:13:44.697Z,5.94
2023-01-12T11:15:05.324Z,5.98
2023-01-12T11:16:22.246Z,6.17
2023-01-12T11:17:36.784Z,6.37
2023-01-12T11:19:01.153Z,6.14
2023-01-12T11:20:07.194Z,6.13
2023-01-12T11:21:15.388Z,6.83
2023-01-12T11:22:27.732Z,7.50
2023-01-12T11:29:28.720Z,7.75
2023-01-12T11:30:46.157Z,7.31
2023-01-12T11:31:54.732Z,6.96
2023-01-12T11:33:15.698Z,6.68
2023-01-12T11:34:22.755Z,6.52
2023-01-12T11:35:41.314Z,6.53
2023-01-12T11:37:11.134Z,6.27
2023-01-12T11:38:23.041Z,6.11
2023-01-12T11:39:28.000Z,5.91
2023-01-12T11:40:33.409Z,5.94
2023-01-12T11:42:16.415Z,6.25
2023-01-12T11:43:43.371Z,6.46
2023-01-12T11:45:10.041Z,5.83
2023-01-12T11:46:25.086Z,5.49
2023-01-12T11:47:32.391Z,5.72
2023-01-12T11:48:46.377Z,5.44
2023-01-12T11:50:00.655Z,5.38
2023-01-12T11:51:03.526Z,5.36
2023-01-12T11:52:10.436Z,5.41
2023-01-12T11:53:22.256Z,5.60
2023-01-12T11:54:30.339Z,6.01
2023-01-12T11:56:06.522Z,6.11
2023-01-12T11:57:28.588Z,6.63
2023-01-12T11:58:46.668Z,6.77
2023-01-12T12:00:22.044Z,7.38
2023-01-12T12:01:50.902Z,7.30
2023-01-12T12:03:07.073Z,7.68
2023-01-12T12:04:53.039Z,7.89
2023-01-12T12:06:25.947Z,8.08
2023-01-12T12:07:41.475Z,8.35
2023-01-12T12:09:10.825Z,8.46
2023-01-12T12:10:53.603Z,8.88
2023-01-12T12:12:00.890Z,8.72
2023-01-12T12:13:29.801Z,9.17
2023-01-12T12:15:03.221Z,10.00
2023-01-12T12:16:35.666Z,9.45
2023-01-12T12:17:50.830Z,9.15
2023-01-12T12:19:04.029Z,9.58
2023-01-12T12:20:27.290Z,8.92
2023-01-12T12:21:44.857Z,9.34
2023-01-12T12:23:04.879Z,9.37
2023-01-12T12:24:25.243Z,9.00
2023-01-12T12:26:11.149Z,9.13
2023-01-12T12:27:21.935Z,9.50
2023-01-12T12:28:40.248Z,10.28
2023-01-12T12:30:20.709Z,10.65
2023-01-12T12:31:40.397Z,9.42
2023-01-12T12:32:51.593Z,9.09
2023-01-12T12:34:03.114Z,9.31
2023-01-12T12:35:21.796Z,9.59
2023-01-12T12:37:04.152Z,9.41
2023-01-12T12:38:24.640Z,9.83
2023-01-12T12:39:42.999Z,9.84
2023-01-12T12:41:33.149Z,10.19
2023-01-12T12:43:48.335Z,9.73
2023-01-12T12:45:17.185Z,9.57
2023-01-12T12:46:55.862Z,9.75
2023-01-12T12:48:21.587Z,9.63
2023-01-12T12:49:30.247Z,10.31
2023-01-12T12:50:41.864Z,10.30
2023-01-12T12:51:46.116Z,9.75
2023-01-12T12:53:11.892Z,9.27
2023-01-12T12:54:20.710Z,9.66
2023-01-12T12:55:23.524Z,10.04
2023-01-12T12:56:29.951Z,9.98
2023-01-12T12:58:00.686Z,9.48
2023-01-12T12:59:03.890Z,10.30
2023-01-12T13:00:40.569Z,9.93
2023-01-12T13:01:55.627Z,9.97
2023-01-12T13:02:58.952Z,10.94
2023-01-12T13:04:03.991Z,11.65
2023-01-12T13:05:08.863Z,11.66
2023-01-12T13:06:15.342Z,10.55
2023-01-12T13:07:21.580Z,11.28
2023-01-12T13:08:34.230Z,11.51
2023-01-12T13:09:39.185Z,11.92
2023-01-12T13:10:49.578Z,11.91
2023-01-12T13:12:09.229Z,10.50
2023-01-12T13:13:33.042Z,9.77
2023-01-12T13:14:41.174Z,8.93
2023-01-12T13:15:43.913Z,9.26
2023-01-12T13:16:52.005Z,8.77
2023-01-12T13:17:55.827Z,8.38
2023-01-12T13:18:58.367Z,8.38
2023-01-12T13:20:16.821Z,7.90
2023-01-12T13:21:27.064Z,7.73
2023-01-12T13:22:35.188Z,7.50
2023-01-12T13:23:50.707Z,7.14
2023-01-12T13:24:54.270Z,7.03
2023-01-12T13:25:57.865Z,6.98
2023-01-12T13:27:02.033Z,7.05
2023-01-12T13:28:04.488Z,6.96
2023-01-12T13:29:42.005Z,7.03
2023-01-12T13:30:55.751Z,6.92
2023-01-12T13:32:20.478Z,6.94
2023-01-12T13:33:28.593Z,7.03
2023-01-12T13:34:37.309Z,6.84
2023-01-12T13:35:40.677Z,6.95
2023-01-12T13:36:43.475Z,6.62
2023-01-12T13:37:58.418Z,6.52
2023-01-12T13:39:07.194Z,6.55
2023-01-12T13:40:20.940Z,6.46
2023-01-12T13:41:46.431Z,6.42
2023-01-12T13:43:09.418Z,6.23
2023-01-12T13:44:20.022Z,6.15
2023-01-12T13:45:24.117Z,6.05
2023-01-12T13:46:29.238Z,6.00
2023-01-12T13:47:33.424Z,5.94
2023-01-12T13:48:37.347Z,5.81
2023-01-12T13:50:00.765Z,5.83
2023-01-12T13:51:12.942Z,5.87
2023-01-12T13:52:29.358Z,5.55
2023-01-12T13:53:32.497Z,5.59
2023-01-12T13:54:35.197Z,5.42
2023-01-12T13:55:39.158Z,5.39
2023-01-12T13:56:42.588Z,5.41
2023-01-12T13:57:57.046Z,5.55
2023-01-12T13:59:04.745Z,5.57
2023-01-12T14:00:22.274Z,5.63
2023-01-12T14:01:30.364Z,5.65
2023-01-12T14:02:33.180Z,5.59
2023-01-12T14:03:47.851Z,5.42
2023-01-12T14:05:00.503Z,5.41
2023-01-12T14:06:12.772Z,5.41
2023-01-12T14:07:16.117Z,5.37
2023-01-12T14:09:17.861Z,5.39
2023-01-12T14:10:31.906Z,5.38
2023-01-12T14:12:05.034Z,5.35
2023-01-12T14:13:32.337Z,5.33
2023-01-12T14:15:11.562Z,5.37
2023-01-12T14:16:36.477Z,5.33
2023-01-12T14:17:57.961Z,5.41
2023-01-12T14:19:01.239Z,5.37
2023-01-12T14:20:13.307Z,5.37
2023-01-12T14:21:38.000Z,5.23
2023-01-12T14:22:40.479Z,5.31
2023-01-12T14:23:42.762Z,5.23
2023-01-12T14:24:45.384Z,5.28
2023-01-12T14:26:02.587Z,5.29
2023-01-12T14:27:16.278Z,5.27
2023-01-12T14:28:22.520Z,5.24
2023-01-12T14:29:24.977Z,5.22
2023-01-12T14:30:28.792Z,5.20
2023-01-12T14:31:40.619Z,5.16
2023-01-12T14:32:48.535Z,5.13
2023-01-12T14:33:53.877Z,5.12
2023-01-12T14:34:56.572Z,5.09
2023-01-12T14:36:06.010Z,5.07
2023-01-12T14:37:28.593Z,4.95
2023-01-12T14:38:34.376Z,4.94
2023-01-12T14:39:41.453Z,4.92
2023-01-12T14:41:05.367Z,4.90
2023-01-12T14:42:35.995Z,4.89
2023-01-12T14:43:57.084Z,4.84
2023-01-12T14:45:17.987Z,4.83
2023-01-12T14:46:28.710Z,4.73
2023-01-12T14:47:34.973Z,4.66
2023-01-12T14:48:43.336Z,4.52
2023-01-12T14:49:46.405Z,4.64
2023-01-12T14:51:08.783Z,4.64
2023-01-12T14:52:17.092Z,4.63
2023-01-12T14:53:32.378Z,4.56
2023-01-12T14:54:35.160Z,4.51
2023-01-12T14:55:40.393Z,4.53
2023-01-12T14:56:59.437Z,4.46
2023-01-12T14:58:05.507Z,4.48
2023-01-12T14:59:15.019Z,4.50
2023-01-12T15:00:29.753Z,4.51
2023-01-12T15:01:38.144Z,4.53
2023-01-12T15:02:41.696Z,4.56
2023-01-12T15:03:48.599Z,4.43
2023-01-12T15:04:56.839Z,4.46
2023-01-12T15:05:59.568Z,4.32
2023-01-12T15:07:05.534Z,4.23
2023-01-12T15:08:08.824Z,4.15
2023-01-12T15:09:32.425Z,4.25
2023-01-12T15:10:41.053Z,4.29
2023-01-12T15:11:43.476Z,4.33
2023-01-12T15:12:54.604Z,4.32
2023-01-12T15:14:01.753Z,4.36
2023-01-12T15:15:16.484Z,4.39
2023-01-12T15:16:37.611Z,4.39
2023-01-12T15:17:59.285Z,4.41
2023-01-12T15:19:20.488Z,4.31
2023-01-12T15:20:48.963Z,4.36
2023-01-12T15:22:10.350Z,4.38
2023-01-12T15:23:32.094Z,4.40
2023-01-12T15:24:54.717Z,4.43
2023-01-12T15:25:57.692Z,4.43
2023-01-12T15:27:06.427Z,4.42
2023-01-12T15:28:09.896Z,4.43
2023-01-12T15:29:12.357Z,4.45
2023-01-12T15:30:15.160Z,4.48
2023-01-12T15:31:53.022Z,4.47
2023-01-12T15:32:56.464Z,4.45
2023-01-12T15:33:59.100Z,4.46